sensor_id;sensor_type;location;lat;lon;timestamp;P1;durP1;ratioP1;P2;durP2;ratioP2
31974;SDS011;18500;43.618;1.474;2022-12-20T06:50:19;194.38;;;181.27;;
31974;SDS011;18500;43.618;1.474;2022-12-20T06:52:45;245.63;;;229.43;;
31974;SDS011;18500;43.618;1.474;2022-12-20T06:55:10;372.63;;;345.27;;
31974;SDS011;18500;43.618;1.474;2022-12-20T06:57:36;168.05;;;156.07;;
31974;SDS011;18500;43.618;1.474;2022-12-20T07:00:02;197.77;;;184.63;;
31974;SDS011;18500;43.618;1.474;2022-12-20T07:02:29;240.73;;;223.90;;
31974;SDS011;18500;43.618;1.474;2022-12-20T07:04:54;266.20;;;248.05;;
31974;SDS011;18500;43.618;1.474;2022-12-20T07:07:20;239.50;;;223.25;;
31974;SDS011;18500;43.618;1.474;2022-12-20T07:09:46;211.82;;;197.23;;
31974;SDS011;18500;43.618;1.474;2022-12-20T07:12:12;200.55;;;187.60;;
31974;SDS011;18500;43.618;1.474;2022-12-20T07:14:37;186.25;;;173.80;;
31974;SDS011;18500;43.618;1.474;2022-12-20T07:17:04;208.65;;;194.95;;
31974;SDS011;18500;43.618;1.474;2022-12-20T07:19:31;230.95;;;214.77;;
31974;SDS011;18500;43.618;1.474;2022-12-20T07:21:57;186.68;;;174.65;;
31974;SDS011;18500;43.618;1.474;2022-12-20T07:24:23;158.95;;;148.00;;
31974;SDS011;18500;43.618;1.474;2022-12-20T07:26:48;180.10;;;167.95;;
31974;SDS011;18500;43.618;1.474;2022-12-20T07:29:14;199.18;;;185.77;;
31974;SDS011;18500;43.618;1.474;2022-12-20T07:31:40;160.50;;;149.32;;
31974;SDS011;18500;43.618;1.474;2022-12-20T07:34:05;207.18;;;193.57;;
31974;SDS011;18500;43.618;1.474;2022-12-20T07:36:31;178.07;;;165.90;;
31974;SDS011;18500;43.618;1.474;2022-12-20T07:38:57;229.98;;;215.40;;
31974;SDS011;18500;43.618;1.474;2022-12-20T07:41:22;265.85;;;248.63;;
31974;SDS011;18500;43.618;1.474;2022-12-20T07:43:49;192.38;;;179.57;;
31974;SDS011;18500;43.618;1.474;2022-12-20T07:46:15;164.75;;;153.90;;
31974;SDS011;18500;43.618;1.474;2022-12-20T07:48:41;258.48;;;240.98;;
31974;SDS011;18500;43.618;1.474;2022-12-20T07:51:09;347.58;;;324.92;;
31974;SDS011;18500;43.618;1.474;2022-12-20T07:53:42;256.75;;;240.77;;
31974;SDS011;18500;43.618;1.474;2022-12-20T07:56:11;241.27;;;226.07;;
31974;SDS011;18500;43.618;1.474;2022-12-20T07:58:38;200.93;;;187.60;;
31974;SDS011;18500;43.618;1.474;2022-12-20T08:01:06;214.02;;;200.32;;
31974;SDS011;18500;43.618;1.474;2022-12-20T08:03:35;320.02;;;298.70;;
31974;SDS011;18500;43.618;1.474;2022-12-20T08:06:06;164.82;;;153.63;;
31974;SDS011;18500;43.618;1.474;2022-12-20T08:08:32;214.20;;;199.63;;
31974;SDS011;18500;43.618;1.474;2022-12-20T08:11:02;345.23;;;321.27;;
31974;SDS011;18500;43.618;1.474;2022-12-20T08:13:30;237.13;;;221.25;;
31974;SDS011;18500;43.618;1.474;2022-12-20T08:15:57;393.05;;;367.08;;
31974;SDS011;18500;43.618;1.474;2022-12-20T08:18:23;271.77;;;254.20;;
31974;SDS011;18500;43.618;1.474;2022-12-20T08:20:49;185.50;;;173.65;;
31974;SDS011;18500;43.618;1.474;2022-12-20T08:23:14;203.27;;;188.73;;
31974;SDS011;18500;43.618;1.474;2022-12-20T08:25:40;449.30;;;418.17;;
31974;SDS011;18500;43.618;1.474;2022-12-20T08:28:06;239.38;;;223.07;;
31974;SDS011;18500;43.618;1.474;2022-12-20T08:30:31;313.13;;;291.10;;
31974;SDS011;18500;43.618;1.474;2022-12-20T08:32:57;282.08;;;264.38;;
31974;SDS011;18500;43.618;1.474;2022-12-20T08:35:23;234.88;;;218.98;;
31974;SDS011;18500;43.618;1.474;2022-12-20T08:37:51;352.98;;;329.65;;
31974;SDS011;18500;43.618;1.474;2022-12-20T08:40:18;351.05;;;325.90;;
31974;SDS011;18500;43.618;1.474;2022-12-20T08:42:44;396.10;;;367.98;;
31974;SDS011;18500;43.618;1.474;2022-12-20T08:45:10;484.77;;;451.17;;
31974;SDS011;18500;43.618;1.474;2022-12-20T08:47:36;347.98;;;325.88;;
31974;SDS011;18500;43.618;1.474;2022-12-20T08:50:02;321.58;;;300.63;;
31974;SDS011;18500;43.618;1.474;2022-12-20T08:52:28;244.68;;;229.10;;
31974;SDS011;18500;43.618;1.474;2022-12-20T08:54:54;345.30;;;322.08;;
31974;SDS011;18500;43.618;1.474;2022-12-20T08:57:20;370.05;;;346.60;;
31974;SDS011;18500;43.618;1.474;2022-12-20T08:59:46;819.95;;;753.30;;
31974;SDS011;18500;43.618;1.474;2022-12-20T09:02:11;672.20;;;625.97;;
31974;SDS011;18500;43.618;1.474;2022-12-20T09:04:37;597.70;;;556.13;;
31974;SDS011;18500;43.618;1.474;2022-12-20T09:07:03;697.42;;;647.22;;
31974;SDS011;18500;43.618;1.474;2022-12-20T09:09:29;789.78;;;730.42;;
31974;SDS011;18500;43.618;1.474;2022-12-20T09:11:55;622.25;;;579.17;;
31974;SDS011;18500;43.618;1.474;2022-12-20T09:14:21;549.38;;;513.17;;
31974;SDS011;18500;43.618;1.474;2022-12-20T09:16:47;455.85;;;426.52;;
31974;SDS011;18500;43.618;1.474;2022-12-20T09:19:13;517.67;;;482.33;;
31974;SDS011;18500;43.618;1.474;2022-12-20T09:21:39;753.13;;;694.53;;
31974;SDS011;18500;43.618;1.474;2022-12-20T09:24:05;487.40;;;455.90;;
31974;SDS011;18500;43.618;1.474;2022-12-20T09:26:31;505.50;;;470.20;;
31974;SDS011;18500;43.618;1.474;2022-12-20T09:28:59;506.00;;;471.52;;
31974;SDS011;18500;43.618;1.474;2022-12-20T09:31:26;447.23;;;417.48;;
31974;SDS011;18500;43.618;1.474;2022-12-20T09:33:52;914.28;;;840.90;;
31974;SDS011;18500;43.618;1.474;2022-12-20T09:36:20;673.35;;;624.67;;
31974;SDS011;18500;43.618;1.474;2022-12-20T09:38:46;537.53;;;500.33;;
31974;SDS011;18500;43.618;1.474;2022-12-20T09:43:58;468.98;;;437.60;;
31974;SDS011;18500;43.618;1.474;2022-12-20T09:46:28;747.17;;;691.47;;
31974;SDS011;18500;43.618;1.474;2022-12-20T09:48:54;491.27;;;457.98;;
31974;SDS011;18500;43.618;1.474;2022-12-20T09:59:25;732.10;;;677.50;;
31974;SDS011;18500;43.618;1.474;2022-12-20T10:01:51;581.72;;;540.40;;
31974;SDS011;18500;43.618;1.474;2022-12-20T10:04:21;692.08;;;640.58;;
31974;SDS011;18500;43.618;1.474;2022-12-20T10:12:12;763.67;;;704.92;;
31974;SDS011;18500;43.618;1.474;2022-12-20T10:23:42;904.83;;;829.40;;
31974;SDS011;18500;43.618;1.474;2022-12-20T10:26:15;849.67;;;781.20;;
31974;SDS011;18500;43.618;1.474;2022-12-20T10:28:41;791.53;;;728.95;;
31974;SDS011;18500;43.618;1.474;2022-12-20T10:31:10;900.10;;;825.40;;
31974;SDS011;18500;43.618;1.474;2022-12-20T10:33:37;783.13;;;721.25;;
31974;SDS011;18500;43.618;1.474;2022-12-20T10:39:11;823.03;;;757.03;;
31974;SDS011;18500;43.618;1.474;2022-12-20T10:46:54;890.63;;;817.95;;
31974;SDS011;18500;43.618;1.474;2022-12-20T10:54:37;910.85;;;832.75;;
31974;SDS011;18500;43.618;1.474;2022-12-20T10:59:50;812.65;;;747.95;;
31974;SDS011;18500;43.618;1.474;2022-12-20T11:02:25;833.33;;;764.75;;
31974;SDS011;18500;43.618;1.474;2022-12-20T11:05:01;833.63;;;767.15;;
31974;SDS011;18500;43.618;1.474;2022-12-20T11:10:20;849.42;;;776.97;;
31974;SDS011;18500;43.618;1.474;2022-12-20T11:13:00;939.83;;;860.13;;
31974;SDS011;18500;43.618;1.474;2022-12-20T11:15:28;1003.65;;;914.03;;
31974;SDS011;18500;43.618;1.474;2022-12-20T11:18:09;893.10;;;818.45;;
31974;SDS011;18500;43.618;1.474;2022-12-20T11:23:34;848.22;;;779.65;;
31974;SDS011;18500;43.618;1.474;2022-12-20T11:28:56;857.20;;;784.33;;
31974;SDS011;18500;43.618;1.474;2022-12-20T11:34:57;915.88;;;839.75;;
31974;SDS011;18500;43.618;1.474;2022-12-20T11:48:53;978.85;;;896.15;;
31974;SDS011;18500;43.618;1.474;2022-12-20T11:51:44;990.78;;;904.55;;
31974;SDS011;18500;43.618;1.474;2022-12-20T11:56:43;994.10;;;906.42;;
31974;SDS011;18500;43.618;1.474;2022-12-20T12:01:45;1036.93;;;946.15;;
31974;SDS011;18500;43.618;1.474;2022-12-20T12:04:30;990.53;;;904.30;;
31974;SDS011;18500;43.618;1.474;2022-12-20T12:14:45;986.70;;;901.03;;
31974;SDS011;18500;43.618;1.474;2022-12-20T12:17:25;1010.28;;;917.95;;
31974;SDS011;18500;43.618;1.474;2022-12-20T12:19:59;1014.10;;;922.30;;
31974;SDS011;18500;43.618;1.474;2022-12-20T12:22:39;991.33;;;907.10;;
31974;SDS011;18500;43.618;1.474;2022-12-20T12:25:08;997.08;;;910.70;;
31974;SDS011;18500;43.618;1.474;2022-12-20T12:30:04;965.60;;;885.03;;
31974;SDS011;18500;43.618;1.474;2022-12-20T12:32:38;982.15;;;899.80;;
31974;SDS011;18500;43.618;1.474;2022-12-20T12:35:12;1040.82;;;947.53;;
31974;SDS011;18500;43.618;1.474;2022-12-20T12:43:45;1010.83;;;922.10;;
31974;SDS011;18500;43.618;1.474;2022-12-20T12:46:26;965.83;;;879.15;;
31974;SDS011;18500;43.618;1.474;2022-12-20T12:48:56;928.58;;;844.35;;
31974;SDS011;18500;43.618;1.474;2022-12-20T12:51:27;1037.35;;;942.35;;
31974;SDS011;18500;43.618;1.474;2022-12-20T12:56:47;1028.93;;;939.22;;
31974;SDS011;18500;43.618;1.474;2022-12-20T12:59:22;938.05;;;858.00;;
31974;SDS011;18500;43.618;1.474;2022-12-20T13:20:17;1002.40;;;911.40;;
31974;SDS011;18500;43.618;1.474;2022-12-20T13:23:04;1064.82;;;967.88;;
31974;SDS011;18500;43.618;1.474;2022-12-20T13:25:29;1045.75;;;951.38;;
31974;SDS011;18500;43.618;1.474;2022-12-20T13:28:42;1087.30;;;985.35;;
31974;SDS011;18500;43.618;1.474;2022-12-20T13:30:46;1015.40;;;924.50;;
31974;SDS011;18500;43.618;1.474;2022-12-20T13:33:43;1073.65;;;974.28;;
31974;SDS011;18500;43.618;1.474;2022-12-20T13:41:11;1029.70;;;937.90;;
31974;SDS011;18500;43.618;1.474;2022-12-20T13:43:56;1069.25;;;972.03;;
31974;SDS011;18500;43.618;1.474;2022-12-20T13:46:36;1084.10;;;983.33;;
31974;SDS011;18500;43.618;1.474;2022-12-20T13:49:26;1046.63;;;951.58;;
31974;SDS011;18500;43.618;1.474;2022-12-20T13:52:11;1076.75;;;976.47;;
31974;SDS011;18500;43.618;1.474;2022-12-20T13:54:45;1074.55;;;974.78;;
31974;SDS011;18500;43.618;1.474;2022-12-20T13:57:14;1066.03;;;968.38;;
31974;SDS011;18500;43.618;1.474;2022-12-20T13:59:45;1072.85;;;975.63;;
31974;SDS011;18500;43.618;1.474;2022-12-20T14:02:18;1096.55;;;991.30;;
31974;SDS011;18500;43.618;1.474;2022-12-20T14:04:49;989.15;;;902.40;;
31974;SDS011;18500;43.618;1.474;2022-12-20T14:07:27;1017.78;;;924.70;;
31974;SDS011;18500;43.618;1.474;2022-12-20T14:09:56;1069.43;;;969.85;;
31974;SDS011;18500;43.618;1.474;2022-12-20T14:12:24;1078.38;;;977.38;;
31974;SDS011;18500;43.618;1.474;2022-12-20T14:14:51;1048.80;;;953.92;;
31974;SDS011;18500;43.618;1.474;2022-12-20T14:17:21;1056.15;;;958.22;;
31974;SDS011;18500;43.618;1.474;2022-12-20T14:22:35;1061.60;;;964.33;;
31974;SDS011;18500;43.618;1.474;2022-12-20T14:25:03;1050.75;;;953.50;;
31974;SDS011;18500;43.618;1.474;2022-12-20T14:27:32;1084.63;;;980.22;;
31974;SDS011;18500;43.618;1.474;2022-12-20T14:30:00;1069.45;;;970.38;;
31974;SDS011;18500;43.618;1.474;2022-12-20T14:32:26;1073.97;;;974.35;;
31974;SDS011;18500;43.618;1.474;2022-12-20T14:34:52;1039.05;;;944.30;;
31974;SDS011;18500;43.618;1.474;2022-12-20T14:42:34;1070.70;;;970.67;;
31974;SDS011;18500;43.618;1.474;2022-12-20T14:47:29;1069.18;;;968.72;;
31974;SDS011;18500;43.618;1.474;2022-12-20T14:52:32;1093.10;;;988.50;;
31974;SDS011;18500;43.618;1.474;2022-12-20T14:57:42;1030.45;;;937.47;;
31974;SDS011;18500;43.618;1.474;2022-12-20T15:02:40;1072.93;;;972.47;;
31974;SDS011;18500;43.618;1.474;2022-12-20T15:11:26;985.70;;;899.05;;
31974;SDS011;18500;43.618;1.474;2022-12-20T15:13:33;951.97;;;870.47;;
31974;SDS011;18500;43.618;1.474;2022-12-20T15:18:53;818.08;;;750.45;;
31974;SDS011;18500;43.618;1.474;2022-12-20T15:24:03;825.88;;;759.63;;
31974;SDS011;18500;43.618;1.474;2022-12-20T15:26:33;869.10;;;798.20;;
31974;SDS011;18500;43.618;1.474;2022-12-20T15:29:00;937.80;;;858.28;;
31974;SDS011;18500;43.618;1.474;2022-12-20T15:31:27;869.40;;;797.45;;
31974;SDS011;18500;43.618;1.474;2022-12-20T15:33:53;807.10;;;739.90;;
31974;SDS011;18500;43.618;1.474;2022-12-20T15:36:25;747.35;;;687.80;;
31974;SDS011;18500;43.618;1.474;2022-12-20T15:38:53;754.90;;;694.70;;
31974;SDS011;18500;43.618;1.474;2022-12-20T15:41:24;770.25;;;708.65;;
31974;SDS011;18500;43.618;1.474;2022-12-20T15:44:04;829.50;;;762.15;;
31974;SDS011;18500;43.618;1.474;2022-12-20T15:46:32;761.10;;;701.75;;
31974;SDS011;18500;43.618;1.474;2022-12-20T15:48:58;764.03;;;705.38;;
31974;SDS011;18500;43.618;1.474;2022-12-20T15:51:29;726.25;;;671.50;;
31974;SDS011;18500;43.618;1.474;2022-12-20T15:53:56;792.05;;;732.22;;
31974;SDS011;18500;43.618;1.474;2022-12-20T15:56:26;787.75;;;727.25;;
31974;SDS011;18500;43.618;1.474;2022-12-20T15:58:52;834.97;;;771.55;;
31974;SDS011;18500;43.618;1.474;2022-12-20T16:01:28;789.15;;;730.85;;
31974;SDS011;18500;43.618;1.474;2022-12-20T16:03:59;593.65;;;552.60;;
31974;SDS011;18500;43.618;1.474;2022-12-20T16:06:25;495.80;;;462.48;;
31974;SDS011;18500;43.618;1.474;2022-12-20T16:08:51;536.38;;;500.83;;
31974;SDS011;18500;43.618;1.474;2022-12-20T16:11:24;559.47;;;519.78;;
31974;SDS011;18500;43.618;1.474;2022-12-20T16:13:54;413.02;;;385.60;;
31974;SDS011;18500;43.618;1.474;2022-12-20T16:16:25;367.13;;;342.85;;
31974;SDS011;18500;43.618;1.474;2022-12-20T16:18:55;304.90;;;284.77;;
31974;SDS011;18500;43.618;1.474;2022-12-20T16:21:21;294.35;;;274.42;;
31974;SDS011;18500;43.618;1.474;2022-12-20T16:23:52;295.97;;;275.90;;
31974;SDS011;18500;43.618;1.474;2022-12-20T16:26:19;307.05;;;286.77;;
31974;SDS011;18500;43.618;1.474;2022-12-20T16:28:47;312.40;;;290.88;;
31974;SDS011;18500;43.618;1.474;2022-12-20T16:33:53;315.02;;;294.95;;
31974;SDS011;18500;43.618;1.474;2022-12-20T16:36:20;381.15;;;356.75;;
31974;SDS011;18500;43.618;1.474;2022-12-20T16:38:47;481.30;;;450.25;;
31974;SDS011;18500;43.618;1.474;2022-12-20T16:41:46;388.60;;;360.70;;
31974;SDS011;18500;43.618;1.474;2022-12-20T16:44:08;415.92;;;385.88;;
31974;SDS011;18500;43.618;1.474;2022-12-20T16:49:03;568.40;;;528.50;;
31974;SDS011;18500;43.618;1.474;2022-12-20T16:51:30;551.90;;;513.35;;
31974;SDS011;18500;43.618;1.474;2022-12-20T16:53:57;463.85;;;431.45;;
31974;SDS011;18500;43.618;1.474;2022-12-20T16:56:25;366.55;;;340.75;;
31974;SDS011;18500;43.618;1.474;2022-12-20T16:58:51;465.83;;;434.23;;
31974;SDS011;18500;43.618;1.474;2022-12-20T17:01:21;436.98;;;409.02;;
31974;SDS011;18500;43.618;1.474;2022-12-20T17:03:57;439.52;;;409.65;;
31974;SDS011;18500;43.618;1.474;2022-12-20T17:06:23;302.02;;;281.35;;
31974;SDS011;18500;43.618;1.474;2022-12-20T17:08:48;261.55;;;243.48;;
31974;SDS011;18500;43.618;1.474;2022-12-20T17:13:45;318.95;;;298.92;;
31974;SDS011;18500;43.618;1.474;2022-12-20T17:16:12;270.95;;;253.45;;
31974;SDS011;18500;43.618;1.474;2022-12-20T17:18:39;234.00;;;218.93;;
31974;SDS011;18500;43.618;1.474;2022-12-20T17:23:45;284.10;;;266.17;;
31974;SDS011;18500;43.618;1.474;2022-12-20T17:26:15;336.02;;;315.08;;
31974;SDS011;18500;43.618;1.474;2022-12-20T17:28:44;317.50;;;297.48;;
31974;SDS011;18500;43.618;1.474;2022-12-20T17:33:53;304.60;;;285.70;;
31974;SDS011;18500;43.618;1.474;2022-12-20T17:36:20;321.83;;;302.02;;
31974;SDS011;18500;43.618;1.474;2022-12-20T17:38:45;325.27;;;305.67;;
31974;SDS011;18500;43.618;1.474;2022-12-20T17:43:50;339.58;;;316.98;;
31974;SDS011;18500;43.618;1.474;2022-12-20T17:46:17;292.00;;;272.35;;
31974;SDS011;18500;43.618;1.474;2022-12-20T17:48:44;296.02;;;276.88;;
31974;SDS011;18500;43.618;1.474;2022-12-20T17:51:43;265.20;;;247.57;;
31974;SDS011;18500;43.618;1.474;2022-12-20T17:54:02;219.32;;;204.25;;
31974;SDS011;18500;43.618;1.474;2022-12-20T17:56:31;278.92;;;260.15;;
31974;SDS011;18500;43.618;1.474;2022-12-20T17:58:59;274.73;;;257.15;;
31974;SDS011;18500;43.618;1.474;2022-12-20T18:01:26;346.00;;;325.08;;
31974;SDS011;18500;43.618;1.474;2022-12-20T18:03:55;510.90;;;480.23;;
31974;SDS011;18500;43.618;1.474;2022-12-20T18:06:22;423.90;;;399.10;;
31974;SDS011;18500;43.618;1.474;2022-12-20T18:08:49;467.02;;;439.50;;
31974;SDS011;18500;43.618;1.474;2022-12-20T18:11:17;443.92;;;418.10;;
31974;SDS011;18500;43.618;1.474;2022-12-20T18:13:44;479.13;;;450.60;;
31974;SDS011;18500;43.618;1.474;2022-12-20T18:16:12;378.95;;;357.08;;
31974;SDS011;18500;43.618;1.474;2022-12-20T18:18:39;367.70;;;345.67;;
31974;SDS011;18500;43.618;1.474;2022-12-20T18:21:09;378.50;;;355.25;;
31974;SDS011;18500;43.618;1.474;2022-12-20T18:23:38;426.85;;;401.75;;
31974;SDS011;18500;43.618;1.474;2022-12-20T18:26:11;447.27;;;420.77;;
31974;SDS011;18500;43.618;1.474;2022-12-20T18:28:40;412.73;;;386.35;;
31974;SDS011;18500;43.618;1.474;2022-12-20T18:31:08;287.52;;;269.30;;
31974;SDS011;18500;43.618;1.474;2022-12-20T18:33:36;318.40;;;296.90;;
31974;SDS011;18500;43.618;1.474;2022-12-20T18:36:03;280.92;;;262.33;;
31974;SDS011;18500;43.618;1.474;2022-12-20T18:38:37;330.98;;;310.50;;
31974;SDS011;18500;43.618;1.474;2022-12-20T18:41:05;363.30;;;341.58;;
31974;SDS011;18500;43.618;1.474;2022-12-20T18:43:32;362.40;;;340.70;;
31974;SDS011;18500;43.618;1.474;2022-12-20T18:46:05;451.08;;;424.45;;
31974;SDS011;18500;43.618;1.474;2022-12-20T18:48:33;392.38;;;368.70;;
31974;SDS011;18500;43.618;1.474;2022-12-20T18:51:03;412.48;;;388.25;;
31974;SDS011;18500;43.618;1.474;2022-12-20T18:53:30;475.52;;;447.05;;
31974;SDS011;18500;43.618;1.474;2022-12-20T18:55:59;408.70;;;384.00;;
31974;SDS011;18500;43.618;1.474;2022-12-20T18:58:36;296.77;;;278.67;;
31974;SDS011;18500;43.618;1.474;2022-12-20T19:01:06;318.10;;;298.55;;
31974;SDS011;18500;43.618;1.474;2022-12-20T19:03:36;194.25;;;181.18;;
31974;SDS011;18500;43.618;1.474;2022-12-20T19:06:01;223.20;;;208.80;;
31974;SDS011;18500;43.618;1.474;2022-12-20T19:08:27;228.13;;;211.55;;
31974;SDS011;18500;43.618;1.474;2022-12-20T19:10:57;225.18;;;209.40;;
31974;SDS011;18500;43.618;1.474;2022-12-20T19:13:24;256.60;;;239.98;;
31974;SDS011;18500;43.618;1.474;2022-12-20T19:15:58;227.07;;;211.77;;
31974;SDS011;18500;43.618;1.474;2022-12-20T19:18:44;318.05;;;297.30;;
31974;SDS011;18500;43.618;1.474;2022-12-20T19:21:12;347.42;;;324.95;;
31974;SDS011;18500;43.618;1.474;2022-12-20T19:23:46;353.92;;;331.70;;
31974;SDS011;18500;43.618;1.474;2022-12-20T19:26:14;209.88;;;195.02;;
31974;SDS011;18500;43.618;1.474;2022-12-20T19:28:41;213.00;;;197.63;;
31974;SDS011;18500;43.618;1.474;2022-12-20T19:31:08;241.88;;;224.98;;
31974;SDS011;18500;43.618;1.474;2022-12-20T19:33:36;201.80;;;187.82;;
31974;SDS011;18500;43.618;1.474;2022-12-20T19:38:36;258.13;;;240.35;;
31974;SDS011;18500;43.618;1.474;2022-12-20T19:41:06;258.60;;;241.90;;
31974;SDS011;18500;43.618;1.474;2022-12-20T19:43:31;423.45;;;397.00;;
31974;SDS011;18500;43.618;1.474;2022-12-20T19:45:57;440.83;;;411.55;;
31974;SDS011;18500;43.618;1.474;2022-12-20T19:48:23;497.17;;;464.17;;
31974;SDS011;18500;43.618;1.474;2022-12-20T19:50:48;461.23;;;430.85;;
31974;SDS011;18500;43.618;1.474;2022-12-20T19:53:14;544.10;;;508.10;;
31974;SDS011;18500;43.618;1.474;2022-12-20T19:55:40;486.10;;;455.17;;
31974;SDS011;18500;43.618;1.474;2022-12-20T19:58:05;479.13;;;448.15;;
31974;SDS011;18500;43.618;1.474;2022-12-20T20:00:31;527.22;;;493.10;;
31974;SDS011;18500;43.618;1.474;2022-12-20T20:02:57;509.88;;;476.98;;
31974;SDS011;18500;43.618;1.474;2022-12-20T20:05:23;600.70;;;559.83;;
31974;SDS011;18500;43.618;1.474;2022-12-20T20:07:48;619.22;;;575.67;;
31974;SDS011;18500;43.618;1.474;2022-12-20T20:10:15;490.95;;;457.35;;
31974;SDS011;18500;43.618;1.474;2022-12-20T20:12:41;411.10;;;384.10;;
31974;SDS011;18500;43.618;1.474;2022-12-20T20:15:07;484.88;;;452.92;;
31974;SDS011;18500;43.618;1.474;2022-12-20T20:17:32;427.98;;;400.55;;
31974;SDS011;18500;43.618;1.474;2022-12-20T20:19:59;462.13;;;431.25;;
31974;SDS011;18500;43.618;1.474;2022-12-20T20:22:25;455.73;;;425.70;;
31974;SDS011;18500;43.618;1.474;2022-12-20T20:24:51;505.05;;;470.02;;
31974;SDS011;18500;43.618;1.474;2022-12-20T20:27:16;572.92;;;532.63;;
31974;SDS011;18500;43.618;1.474;2022-12-20T20:29:42;571.58;;;531.92;;
31974;SDS011;18500;43.618;1.474;2022-12-20T20:32:08;454.17;;;425.33;;
31974;SDS011;18500;43.618;1.474;2022-12-20T20:34:33;487.48;;;455.33;;
31974;SDS011;18500;43.618;1.474;2022-12-20T20:36:59;528.22;;;492.35;;
31974;SDS011;18500;43.618;1.474;2022-12-20T20:39:25;629.50;;;586.80;;
31974;SDS011;18500;43.618;1.474;2022-12-20T20:41:50;644.03;;;597.65;;
31974;SDS011;18500;43.618;1.474;2022-12-20T20:44:16;540.72;;;504.65;;
31974;SDS011;18500;43.618;1.474;2022-12-20T20:46:42;658.40;;;612.38;;
31974;SDS011;18500;43.618;1.474;2022-12-20T20:49:08;653.08;;;606.70;;
31974;SDS011;18500;43.618;1.474;2022-12-20T20:51:33;668.15;;;621.58;;
31974;SDS011;18500;43.618;1.474;2022-12-20T20:53:59;651.90;;;605.42;;
31974;SDS011;18500;43.618;1.474;2022-12-20T20:56:25;641.13;;;595.47;;
31974;SDS011;18500;43.618;1.474;2022-12-20T20:58:51;709.33;;;657.80;;
31974;SDS011;18500;43.618;1.474;2022-12-20T21:01:17;604.03;;;560.80;;
31974;SDS011;18500;43.618;1.474;2022-12-20T21:03:43;608.05;;;564.63;;
31974;SDS011;18500;43.618;1.474;2022-12-20T21:06:10;685.63;;;636.25;;
31974;SDS011;18500;43.618;1.474;2022-12-20T21:08:37;611.33;;;567.50;;
31974;SDS011;18500;43.618;1.474;2022-12-20T21:11:06;622.50;;;579.00;;
31974;SDS011;18500;43.618;1.474;2022-12-20T21:13:33;436.92;;;406.70;;
31974;SDS011;18500;43.618;1.474;2022-12-20T21:18:35;574.30;;;535.03;;
31974;SDS011;18500;43.618;1.474;2022-12-20T21:21:08;499.98;;;467.55;;
31974;SDS011;18500;43.618;1.474;2022-12-20T21:23:35;480.00;;;448.48;;
31974;SDS011;18500;43.618;1.474;2022-12-20T21:26:01;505.92;;;471.38;;
31974;SDS011;18500;43.618;1.474;2022-12-20T21:28:27;531.90;;;494.67;;
31974;SDS011;18500;43.618;1.474;2022-12-20T21:30:59;493.98;;;460.65;;
31974;SDS011;18500;43.618;1.474;2022-12-20T21:33:25;473.02;;;441.23;;
31974;SDS011;18500;43.618;1.474;2022-12-20T21:38:25;522.75;;;486.30;;
31974;SDS011;18500;43.618;1.474;2022-12-20T21:40:50;473.25;;;441.02;;
31974;SDS011;18500;43.618;1.474;2022-12-20T21:43:16;481.95;;;449.48;;
31974;SDS011;18500;43.618;1.474;2022-12-20T21:45:41;487.13;;;454.73;;
31974;SDS011;18500;43.618;1.474;2022-12-20T21:48:07;584.33;;;544.45;;
31974;SDS011;18500;43.618;1.474;2022-12-20T21:50:33;542.20;;;506.23;;
31974;SDS011;18500;43.618;1.474;2022-12-20T21:52:58;533.65;;;497.05;;
31974;SDS011;18500;43.618;1.474;2022-12-20T21:55:24;531.75;;;495.33;;
31974;SDS011;18500;43.618;1.474;2022-12-20T21:57:50;405.52;;;377.65;;
31974;SDS011;18500;43.618;1.474;2022-12-20T22:00:15;541.22;;;504.52;;
31974;SDS011;18500;43.618;1.474;2022-12-20T22:02:41;517.60;;;481.23;;
31974;SDS011;18500;43.618;1.474;2022-12-20T22:05:07;404.98;;;376.30;;
31974;SDS011;18500;43.618;1.474;2022-12-20T22:07:33;470.73;;;439.10;;
31974;SDS011;18500;43.618;1.474;2022-12-20T22:09:59;510.77;;;475.13;;
31974;SDS011;18500;43.618;1.474;2022-12-20T22:12:25;472.63;;;441.30;;
31974;SDS011;18500;43.618;1.474;2022-12-20T22:14:50;526.88;;;492.42;;
31974;SDS011;18500;43.618;1.474;2022-12-20T22:17:16;539.63;;;503.08;;
31974;SDS011;18500;43.618;1.474;2022-12-20T22:19:42;582.75;;;543.08;;
31974;SDS011;18500;43.618;1.474;2022-12-20T22:22:07;475.73;;;444.65;;
31974;SDS011;18500;43.618;1.474;2022-12-20T22:24:33;566.03;;;528.13;;
31974;SDS011;18500;43.618;1.474;2022-12-20T22:27:01;558.08;;;520.83;;
31974;SDS011;18500;43.618;1.474;2022-12-20T22:29:26;539.20;;;503.10;;
31974;SDS011;18500;43.618;1.474;2022-12-20T22:31:52;588.72;;;549.25;;
31974;SDS011;18500;43.618;1.474;2022-12-20T22:34:18;527.38;;;492.23;;
31974;SDS011;18500;43.618;1.474;2022-12-20T22:36:44;554.55;;;516.22;;
31974;SDS011;18500;43.618;1.474;2022-12-20T22:39:10;421.48;;;393.98;;
31974;SDS011;18500;43.618;1.474;2022-12-20T22:41:38;408.52;;;380.50;;
31974;SDS011;18500;43.618;1.474;2022-12-20T22:44:04;594.60;;;554.55;;
31974;SDS011;18500;43.618;1.474;2022-12-20T22:46:30;642.08;;;598.25;;
31974;SDS011;18500;43.618;1.474;2022-12-20T22:48:56;462.08;;;431.33;;
31974;SDS011;18500;43.618;1.474;2022-12-20T22:51:23;263.02;;;245.60;;
31974;SDS011;18500;43.618;1.474;2022-12-20T22:53:51;472.45;;;439.75;;
31974;SDS011;18500;43.618;1.474;2022-12-20T22:56:17;550.65;;;514.35;;
31974;SDS011;18500;43.618;1.474;2022-12-20T22:58:45;638.90;;;595.08;;
31974;SDS011;18500;43.618;1.474;2022-12-20T23:01:11;591.83;;;551.47;;
31974;SDS011;18500;43.618;1.474;2022-12-20T23:03:39;602.42;;;561.30;;
31974;SDS011;18500;43.618;1.474;2022-12-20T23:06:06;475.50;;;442.85;;
31974;SDS011;18500;43.618;1.474;2022-12-20T23:08:33;363.42;;;339.98;;
31974;SDS011;18500;43.618;1.474;2022-12-20T23:11:00;396.25;;;370.33;;
31974;SDS011;18500;43.618;1.474;2022-12-20T23:13:44;348.45;;;326.13;;
31974;SDS011;18500;43.618;1.474;2022-12-20T23:16:28;317.40;;;297.35;;
31974;SDS011;18500;43.618;1.474;2022-12-20T23:18:55;328.80;;;307.85;;
31974;SDS011;18500;43.618;1.474;2022-12-20T23:21:24;364.50;;;340.27;;
31974;SDS011;18500;43.618;1.474;2022-12-20T23:24:09;555.47;;;517.53;;
31974;SDS011;18500;43.618;1.474;2022-12-20T23:26:36;563.13;;;524.88;;
31974;SDS011;18500;43.618;1.474;2022-12-20T23:29:06;576.05;;;537.88;;
31974;SDS011;18500;43.618;1.474;2022-12-20T23:31:32;563.30;;;525.67;;
31974;SDS011;18500;43.618;1.474;2022-12-20T23:33:59;553.58;;;517.70;;
31974;SDS011;18500;43.618;1.474;2022-12-20T23:36:25;544.05;;;508.77;;
31974;SDS011;18500;43.618;1.474;2022-12-20T23:38:52;531.83;;;497.98;;